UK Observations

KGNC 221435Z AUTO 17003KT 10SM CLR 10/08 A3023 RMK AO2 T00970084 EGAA 221420Z 25014KT 9999 BKN025 11/08 Q1038 EGAC 221420Z AUTO 25009KT 9999 BKN028/// OVC036/// 12/08 Q1037 EGAE 221420Z 24021KT 9999 SCT024 13/08 Q1037 EGBB 221420Z 35009KT 9999 SCT032 13/05 Q1038 EGBJ 221420Z 35005KT 9999 FEW040 13/05 Q1038 EGCC 221420Z AUTO 28009KT 9999 FEW034 12/04 Q1037 NOSIG EGDR 221415Z 02012KT 9999 FEW028 13/06 Q1039 BLU NOSIG EGFF 221420Z AUTO 01008KT 340V050 9999 NCD 14/06 Q1039 EGGD 221420Z AUTO 36009KT 310V030 9999 NCD 12/06 Q1038 EGGP 221420Z 29011KT 9999 SCT030 12/06 Q1038 EGGW 221420Z AUTO 35010KT 300V020 9999 NCD 12/03 Q1037 EGHE 221420Z 04014KT 9999 SCT028 13/07 Q1039 EGHH 221420Z 36011KT 340V060 9999 FEW042 14/05 Q1037 EGHI 221420Z 02007KT 340V050 CAVOK 12/03 Q1037 EGJA 221420Z 03013KT CAVOK 13/06 Q1037 EGJB 221420Z 02014G24KT 350V060 9999 FEW027 13/05 Q1037 EGJJ 221420Z 03012KT 360V070 9999 FEW030 14/07 Q1036 EGKB 221420Z 35008KT 320V030 CAVOK 12/03 Q1037 EGKK 221420Z 01010G20KT 350V100 CAVOK 13/03 Q1036 EGLC 221420Z AUTO 34008KT 290V010 9999 NCD 13/03 Q1037 EGLF 221420Z 36009KT 330V030 CAVOK 13/03 Q1037 EGLL 221420Z AUTO 35006KT 310V050 9999 NCD 13/03 Q1037 NOSIG EGMC 221420Z 35007KT 310V040 9999 FEW038 12/04 Q1036 EGMD 221420Z 03013KT 9999 SCT030 13/07 Q1036 EGNH 221420Z 27014KT 9999 FEW025 12/07 Q1037 EGNJ 221420Z 27009KT 9999 FEW030 14/05 Q1036 EGNM 221420Z 27016KT 9999 FEW022 11/05 Q1035 EGNS 221420Z 27012KT 9999 FEW022 12/06 Q1038 NOSIG EGNT 221420Z 26014KT 9999 SCT027 12/06 Q1033 EGNV 221420Z 25016KT 9999 FEW028 SCT033 12/05 Q1035 EGNX 221420Z 33008KT 300V010 9999 SCT035 12/05 Q1037 EGPA 221420Z 26035G50KT 9999 VCSH FEW011 BKN022 11/07 Q1018 EGPB 221420Z 26039G52KT 7000 -RA SCT010 BKN015 10/08 Q1013 TEMPO RA BKN010 EGPC 221420Z 26025G38KT 9999 SCT029 12/06 Q1020 EGPD 221420Z 25017G28KT 9999 FEW042 13/05 Q1025 NOSIG EGPE 221420Z 24030G41KT 9999 FEW024 SCT038 13/06 Q1024 EGPF 221420Z AUTO 24018KT 9999 FEW021 SCT026 BKN032 11/08 Q1034 EGPH 221420Z 26019KT 9999 FEW020 12/07 Q1031 EGPK 221420Z 26015KT 9999 -RA FEW012 BKN020 12/08 Q1035 EGPL 221420Z 26031KT 9999 BKN019 BKN025 12/08 Q1028 EGPM 221420Z 25033G44KT 8000 RA FEW010 BKN022 10/08 Q1009 NOSIG EGPN 221420Z 26023G34KT 9999 SCT030 12/08 Q1029 EGPO 221420Z 26027G39KT 9999 FEW017 BKN022 BKN028 11/08 Q1024 EGPU 221420Z 25028KT 9999 FEW021 BKN028 12/08 Q1032 EGSC 221420Z 35008KT 310V020 9999 FEW036 12/03 Q1037 EGSH 221420Z 31005KT 260V350 9999 FEW031 12/06 Q1036 NOSIG EGSS 221420Z AUTO 32008KT 290V010 9999 NCD 12/04 Q1037 EGTC 221420Z 32007KT 290V010 CAVOK 13/04 Q1037 EGTE 221420Z 01011KT 340V040 CAVOK 14/06 Q1038 KGNC 221415Z AUTO 00000KT 10SM CLR 09/08 A3022 RMK AO2 T00870080 EGCN 221420Z 29010KT 9999 FEW037 14/05 Q1037 EGEC 221420Z 27023KT 9999 BKN024 12/08 Q1035 EGHQ 221420Z 03015KT CAVOK 11/05 Q1039 EGNO 221420Z 29011KT 9999 SCT028 13/07 Q1037 EGNR 221420Z 32008KT 270V350 9999 SCT025 13/06 Q1038 EGPI 221420Z 26022KT 9999 VCSH BKN028 12/08 Q1035 EGTK 221420Z 01010KT 340V040 CAVOK 13/03 Q1038 EGAA 221350Z 24013KT 9999 SCT023 BKN028 11/08 Q1038 EGAC 221350Z AUTO 25010KT 9999 OVC024/// 12/08 Q1038 EGAE 221350Z 25020KT 9999 SCT024 13/07 Q1037 EGBB 221350Z 34009KT 9999 SCT032 12/05 Q1038 EGBJ 221350Z 36007KT 9999 FEW035 13/06 Q1039 EGCC 221350Z AUTO 28010KT 9999 FEW031 12/05 Q1038 NOSIG EGDM 221350Z 36013KT 9999 FEW034 13/03 Q1037 BLU NOSIG EGDR 221350Z 03013KT 9999 FEW028 13/06 Q1039 BLU NOSIG EGDY 221350Z 01011KT 9999 FEW030 13/04 Q1038 BLU NOSIG EGFF 221350Z AUTO 36009KT 320V030 9999 NCD 14/05 Q1039 EGGD 221350Z AUTO 35011KT 9999 NCD 12/06 Q1038 EGGP 221350Z 30011KT 9999 SCT029 SCT037 13/06 Q1038 EGGW 221350Z AUTO 34010KT 300V010 9999 NCD 12/03 Q1037 EGHE 221350Z 03015KT 9999 SCT030 13/06 Q1040 EGHH 221350Z 04011KT 340V060 9999 FEW030 14/05 Q1037 EGHI 221350Z 02010KT 340V080 CAVOK 12/04 Q1037 EGJA 221350Z 03015G25KT CAVOK 13/05 Q1037 EGJB 221350Z 04012KT 010V070 9999 FEW027 13/06 Q1036 EGJJ 221350Z 04014G24KT 9999 FEW030 14/07 Q1036 EGKA 221350Z 02011KT CAVOK 13/04 Q1036 EGKB 221350Z 03008KT CAVOK 12/03 Q1037 EGKK 221350Z 02008KT 330V060 CAVOK 13/04 Q1037 EGLC 221350Z AUTO VRB06KT 9999 NCD 13/03 Q1037 EGLF 221350Z 36010KT CAVOK 13/03 Q1037 EGLL 221350Z AUTO 01005KT 320V060 9999 NCD 13/03 Q1037 NOSIG EGMC 221350Z 01005KT 330V060 9999 FEW038 12/05 Q1036 EGMD 221350Z 04015KT 9999 SCT030 13/07 Q1036 EGNH 221350Z 28013KT 9999 FEW025 13/07 Q1038 EGNJ 221350Z 27010KT CAVOK 14/05 Q1036 EGNM 221350Z 27016KT 9999 FEW022 11/06 Q1036 EGNS 221350Z 27015KT 9999 FEW022 12/06 Q1038 NOSIG EGNT 221350Z 25016KT 9999 SCT025 12/06 Q1033 EGNV 221350Z 26015KT 9999 SCT033 12/05 Q1035 EGNX 221350Z 31008KT 9999 SCT037 12/05 Q1037 EGOS 221350Z 33008KT 9999 FEW032 12/05 Q1038 BLU NOSIG EGOV 221350Z 29010KT 9999 FEW023 SCT300 12/07 Q1039 BLU NOSIG EGPA 221350Z 26034G45KT 9999 VCSH FEW011 BKN022 11/08 Q1018 EGPB 221350Z 26041G53KT 8000 -RA BKN015 10/08 Q1014 RERA TEMPO RA EGPC 221350Z 26027G40KT 9999 SCT027 12/06 Q1021 EGPD 221350Z 25016KT 9999 FEW042 13/05 Q1025 NOSIG EGPE 221350Z 24025G37KT 9999 FEW024 SCT038 13/07 Q1025 EGPF 221350Z AUTO 25015KT 9999 -RA FEW014 SCT018 BKN027 10/09 Q1034 EGPH 221350Z 26017KT 9999 FEW025 12/07 Q1032 EGPK 221350Z 25017KT 9999 -RA FEW015 BKN025 11/08 Q1036 EGPL 221350Z 26033KT 9999 VCSH BKN019 BKN024 12/08 Q1029 EGPM 221350Z 25033G47KT 8000 RA FEW010 BKN022 10/08 Q1010 NOSIG EGPN 221350Z 26024KT 9999 SCT032 11/08 Q1030 EGPO 221350Z 26031G41KT 9999 FEW017 BKN022 BKN028 11/08 Q1024 EGPU 221350Z 25027G38KT 9999 BKN023 12/08 Q1032 EGQK 221350Z AUTO 23026G41KT 9999 FEW029/// 12/07 Q1024 EGQL 221350Z 26022KT 9999 BKN040 12/07 Q1029 BLU EGQM 221350Z AUTO 25017KT 9999 NCD 13/05 Q1032 EGQS 221350Z 25027KT 9999 SCT038 BKN250 12/07 Q1024 BLU NOSIG EGSC 221350Z 35008KT 310V030 9999 FEW036 13/03 Q1037 EGSH 221350Z 34006KT 310V040 9999 FEW031 12/05 Q1037 NOSIG EGSS 221350Z AUTO 34008KT 310V020 9999 NCD 12/04 Q1037 EGTC 221350Z 34008KT 300V030 CAVOK 12/04 Q1037 EGTE 221350Z 02009KT 340V060 CAVOK 13/05 Q1038 EGUB 221350Z AUTO 35010KT 9999 // NCD 13/02 Q1037 EGUL 221356Z AUTO 32008KT 9999 CLR 12/04 A3061 RMK AO2 SLP369 T01230043 $ EGUN 221356Z AUTO 34007KT 9999 CLR 13/06 A3062 RMK AO2 SLP372 T01310057 $ EGUN 221356Z AUTO 34007KT 9999 CLR 13/06 A3062 RMK AO2 SLP372 T01310057 . EGVA 221356Z AUTO 36009KT 9999 CLR 13/01 A3065 RMK AO2 SLP384 T01330010 EGVN 221350Z 01011KT 9999 FEW040 13/02 Q1038 NOSIG EGVN 221350Z 01011KT 9999 FEW040 13/02 Q1038 BLU NOSIG EGWU 221350Z 03009KT CAVOK 13/03 Q1037 NOSIG EGWU 221350Z 03009KT CAVOK 13/03 Q1037 BLU NOSIG EGXC 221350Z 32008KT CAVOK 13/03 Q1036 BLU NOSIG EGXT 221350Z 34008KT CAVOK 13/02 Q1037 BLU EGYD 221350Z 32007KT 9999 FEW036 12/03 Q1037 BLU NOSIG GBYD 221400Z 31007KT CAVOK 33/21 Q1010 KGNC 221355Z AUTO 00000KT 10SM CLR 08/08 A3022 RMK AO2 T00820078 EGCN 221350Z 30012KT CAVOK 14/05 Q1037 EGDX 221350Z 02007KT 9999 FEW025 14/04 Q1038 BLU EGEC 221350Z 27024KT 9999 BKN020 12/09 Q1035 EGEO 221350Z 26020KT 9999 FEW018 SCT028 BKN032 12/08 Q1033 EGHQ 221350Z 02015KT 9999 FEW024 11/06 Q1039 EGNO 221350Z 29012KT 9999 SCT026 13/07 Q1037 EGNR 221350Z 32011KT 9999 SCT027 12/04 Q1039 EGOM 221350Z AUTO 26021G32KT 9999 FEW014/// BKN025/// 09/06 Q1033 EGOP 221350Z 02010KT 9999 SCT034 13/06 Q1040 BLU EGOW 221350Z 28012KT 9999 FEW025 13/07 Q1038 BLU EGPI 221350Z 26023KT 230V290 9999 -SHRA BKN021 BKN027 12/08 Q1036 EGQA 221350Z 24015KT 9999 BKN030 10/// Q1025 BLU EGUW 221350Z 35007KT 9999 FEW032 12/06 Q1036 BLU NOSIG EGVO 221350Z 02009KT CAVOK 12/03 Q1037 BLU NOSIG EGVP 221350Z 01011KT CAVOK 13/03 Q1037 BLU NOSIG EGWC 221350Z 32009KT 9999 SCT035 13/04 Q1039 BLU EGXE 221350Z 25011KT 9999 BKN034 13/06 Q1035 BLU NOSIG EGXP 221350Z AUTO 32008KT 9999 // NCD 13/04 Q1036 EGXS 221350Z 25005KT CAVOK 13/05 Q1036 BLU EGXU 221350Z 28011KT 9999 FEW034 13/05 Q1036 BLU NOSIG EGXV 221350Z AUTO 29009KT 9999 NCD 13/04 Q1036 EGXW 221350Z 31008KT 9999 FEW040 13/03 Q1036 BLU NOSIG EGXZ 221350Z 25012KT 9999 SCT036 13/05 Q1035 BLU EGYE 221350Z 33010KT 9999 FEW040 ///// Q1037 BLU EGYH 221350Z 35009KT CAVOK 13/03 Q1037 BLU EGYM 221350Z 34009KT 9999 FEW030 12/03 Q1037 BLU NOSIG EGTK 221350Z 34011KT 310V030 CAVOK 13/04 Q1038